createdAt,value
2023-01-15T00:06:28.260Z,0.40
2023-01-15T00:14:37.820Z,0.50
2023-01-15T00:17:39.486Z,0.50
2023-01-15T00:20:06.632Z,0.38
2023-01-15T00:22:33.153Z,0.50
2023-01-15T00:25:18.468Z,0.55
2023-01-15T00:27:46.172Z,0.70
2023-01-15T00:30:15.803Z,0.40
2023-01-15T00:32:43.497Z,0.60
2023-01-15T00:37:56.088Z,0.57
2023-01-15T00:40:23.027Z,0.40
2023-01-15T00:42:53.875Z,0.70
2023-01-15T00:45:22.185Z,0.38
2023-01-15T00:47:51.446Z,0.40
2023-01-15T00:50:18.133Z,0.45
2023-01-15T00:52:44.926Z,0.40
2023-01-15T01:25:05.304Z,0.50
2023-01-15T01:27:31.971Z,0.40
2023-01-15T01:29:58.581Z,0.45
2023-01-15T01:32:25.164Z,0.50
2023-01-15T01:34:51.893Z,0.38
2023-01-15T01:45:35.943Z,0.57
2023-01-15T01:48:07.006Z,0.50
2023-01-15T01:50:37.272Z,0.50
2023-01-15T01:53:08.280Z,0.40
2023-01-15T01:55:36.231Z,0.50
2023-01-15T01:58:05.379Z,0.57
2023-01-15T02:00:33.886Z,0.40
2023-01-15T02:10:56.140Z,0.40
2023-01-15T02:14:09.642Z,0.45
2023-01-15T02:20:54.307Z,0.60
2023-01-15T02:31:57.022Z,0.50
2023-01-15T02:35:24.965Z,0.50
2023-01-15T02:42:37.649Z,0.50
2023-01-15T02:45:51.209Z,0.50
2023-01-15T03:04:17.449Z,0.40
2023-01-15T03:07:40.685Z,0.30
2023-01-15T03:31:35.040Z,0.50
2023-01-15T03:34:09.736Z,0.60
2023-01-15T03:36:46.813Z,0.32
2023-01-15T03:40:03.162Z,0.30
2023-01-15T03:42:35.093Z,0.65
2023-01-15T03:45:10.622Z,0.43
2023-01-15T03:47:43.319Z,0.30
2023-01-15T03:50:23.665Z,0.30
2023-01-15T03:53:09.109Z,0.50
2023-01-15T03:56:37.388Z,0.57
2023-01-15T04:02:47.064Z,0.50
2023-01-15T04:05:15.392Z,0.40
2023-01-15T04:07:42.402Z,0.52
2023-01-15T04:10:10.382Z,0.45
2023-01-15T04:12:36.900Z,0.57
2023-01-15T04:15:11.437Z,0.52
2023-01-15T04:17:38.743Z,0.40
2023-01-15T04:20:22.144Z,0.50
2023-01-15T04:23:04.274Z,0.50
2023-01-15T04:26:05.496Z,0.40
2023-01-15T04:59:48.527Z,0.45
2023-01-15T05:02:15.604Z,0.57
2023-01-15T05:04:42.300Z,0.60
2023-01-15T05:08:16.021Z,0.40
2023-01-15T05:23:17.909Z,0.63
2023-01-15T05:33:56.422Z,0.60
2023-01-15T05:36:48.931Z,0.60
2023-01-15T05:41:53.014Z,0.40
2023-01-15T05:44:20.905Z,0.60
2023-01-15T05:47:10.012Z,0.40
2023-01-15T05:50:34.359Z,0.40
2023-01-15T05:53:34.938Z,0.57
2023-01-15T05:59:44.130Z,0.60
2023-01-15T06:10:10.304Z,0.73
2023-01-15T06:12:43.365Z,0.60
2023-01-15T06:15:11.571Z,0.80
2023-01-15T06:17:38.164Z,0.60
2023-01-15T06:20:05.105Z,0.50
2023-01-15T06:22:31.534Z,0.70
2023-01-15T06:24:58.098Z,0.50
2023-01-15T06:27:24.589Z,0.70
2023-01-15T06:29:51.033Z,0.57
2023-01-15T06:32:17.468Z,0.57
2023-01-15T06:34:44.812Z,0.50
2023-01-15T06:37:11.280Z,0.40
2023-01-15T06:39:37.830Z,0.50
2023-01-15T06:42:23.304Z,0.40
2023-01-15T06:45:08.228Z,0.38
2023-01-15T06:48:26.167Z,0.50
2023-01-15T06:50:56.375Z,0.45
2023-01-15T06:53:23.400Z,0.73
2023-01-15T06:55:50.930Z,1.00
2023-01-15T06:58:17.544Z,1.23
2023-01-15T07:00:45.238Z,0.85
2023-01-15T07:03:14.463Z,0.90
2023-01-15T07:05:42.121Z,0.50
2023-01-15T07:08:40.162Z,0.70
2023-01-15T07:18:37.154Z,0.68
2023-01-15T07:21:26.017Z,0.70
2023-01-15T07:25:08.421Z,0.70
2023-01-15T07:49:30.596Z,0.77
2023-01-15T07:53:14.038Z,0.68
2023-01-15T07:55:40.559Z,0.80
2023-01-15T07:58:06.998Z,0.80
2023-01-15T08:01:21.159Z,0.90
2023-01-15T08:03:48.013Z,1.50
2023-01-15T08:06:14.565Z,1.63
2023-01-15T08:08:45.131Z,1.27
2023-01-15T08:21:30.849Z,2.00
2023-01-15T08:25:29.995Z,1.10
2023-01-15T08:28:49.683Z,1.13
2023-01-15T08:31:51.069Z,0.90
2023-01-15T08:34:46.804Z,0.90
2023-01-15T08:37:52.493Z,0.70
2023-01-15T08:40:54.635Z,0.80
2023-01-15T08:44:03.277Z,0.70
2023-01-15T08:46:30.022Z,0.85
2023-01-15T08:51:22.122Z,0.85
2023-01-15T08:53:59.132Z,0.50
2023-01-15T08:56:25.591Z,0.80
2023-01-15T08:58:52.039Z,0.90
2023-01-15T09:01:18.910Z,0.93
2023-01-15T09:04:26.379Z,1.10
2023-01-15T09:06:56.324Z,0.63
2023-01-15T09:09:25.376Z,0.80
2023-01-15T09:12:14.218Z,0.82
2023-01-15T09:18:38.309Z,0.70
2023-01-15T09:22:25.381Z,0.50
2023-01-15T09:28:50.361Z,0.70
2023-01-15T09:42:56.909Z,0.60
2023-01-15T09:45:56.553Z,0.70
2023-01-15T09:48:49.831Z,0.60
2023-01-15T09:52:29.596Z,0.65
2023-01-15T09:55:13.494Z,0.60
2023-01-15T09:58:15.821Z,0.50
2023-01-15T10:00:50.458Z,0.60
2023-01-15T10:03:46.957Z,0.52
2023-01-15T10:06:46.115Z,0.77
2023-01-15T10:10:07.745Z,0.73
2023-01-15T10:17:07.058Z,0.80
2023-01-15T10:20:07.637Z,0.60
2023-01-15T10:22:39.803Z,0.77
2023-01-15T10:36:43.367Z,0.40
2023-01-15T10:43:26.049Z,0.35
2023-01-15T10:49:43.964Z,0.30
2023-01-15T10:56:36.845Z,0.40
2023-01-15T10:59:32.991Z,0.35
2023-01-15T11:03:12.196Z,0.30
2023-01-15T11:06:56.483Z,0.30
2023-01-15T11:18:25.024Z,0.30
2023-01-15T11:20:51.962Z,0.30
2023-01-15T11:24:16.700Z,0.73
2023-01-15T11:27:07.206Z,0.77
2023-01-15T11:34:02.645Z,0.30
2023-01-15T11:36:39.846Z,0.20
2023-01-15T11:39:51.238Z,0.30
2023-01-15T12:00:29.869Z,0.70
2023-01-15T12:11:21.072Z,0.30
2023-01-15T12:14:09.570Z,0.30
2023-01-15T12:16:46.510Z,0.40
2023-01-15T12:23:09.059Z,0.43
2023-01-15T12:46:00.851Z,0.30
2023-01-15T12:49:01.500Z,0.20
2023-01-15T12:52:10.791Z,0.22
2023-01-15T12:54:48.380Z,0.20
2023-01-15T12:57:33.565Z,0.28
2023-01-15T13:00:08.064Z,0.28
2023-01-15T13:02:56.072Z,0.22
2023-01-15T13:05:32.839Z,0.20
2023-01-15T13:08:06.793Z,0.20
2023-01-15T13:10:36.672Z,0.28
2023-01-15T13:13:25.194Z,0.20
2023-01-15T13:19:48.363Z,0.40
2023-01-15T13:22:52.691Z,0.22
2023-01-15T13:25:54.668Z,0.50
2023-01-15T13:29:00.112Z,1.05
2023-01-15T13:31:47.297Z,0.40
2023-01-15T13:38:16.518Z,0.30
2023-01-15T13:41:06.306Z,0.25
2023-01-15T13:43:36.098Z,0.28
2023-01-15T13:46:10.951Z,0.30
2023-01-15T13:49:15.834Z,0.20
2023-01-15T13:51:51.009Z,0.40
2023-01-15T13:55:52.812Z,0.30
2023-01-15T13:58:04.711Z,0.30
2023-01-15T14:00:42.861Z,0.30
2023-01-15T14:03:31.331Z,0.20
2023-01-15T14:08:47.189Z,0.40
2023-01-15T14:11:36.091Z,1.00
2023-01-15T14:14:14.328Z,0.50
2023-01-15T14:16:55.668Z,0.40
2023-01-15T14:19:49.588Z,0.50
2023-01-15T14:22:33.785Z,0.30
2023-01-15T14:25:23.545Z,0.30
2023-01-15T14:28:22.089Z,0.40
2023-01-15T14:31:22.620Z,0.85
2023-01-15T14:34:19.115Z,0.63
2023-01-15T14:36:49.522Z,0.40
2023-01-15T14:39:51.647Z,0.35
2023-01-15T14:42:39.506Z,0.30
2023-01-15T14:45:08.071Z,0.80
2023-01-15T14:47:46.303Z,0.50
2023-01-15T14:50:38.853Z,0.30
2023-01-15T14:53:14.370Z,0.30
2023-01-15T14:55:46.650Z,0.40
2023-01-15T14:58:38.414Z,0.45
2023-01-15T15:01:15.935Z,0.73
2023-01-15T15:03:56.957Z,0.60
2023-01-15T15:06:24.500Z,0.70
2023-01-15T15:08:54.018Z,0.80
2023-01-15T15:11:48.029Z,0.82
2023-01-15T15:14:16.266Z,0.40
2023-01-15T15:16:48.178Z,0.55
2023-01-15T15:19:18.568Z,0.60
2023-01-15T15:21:48.185Z,1.00
2023-01-15T15:24:26.151Z,1.30
2023-01-15T15:26:52.742Z,2.08
2023-01-15T15:29:21.079Z,1.88
2023-01-15T15:32:00.333Z,1.50
2023-01-15T15:34:38.296Z,1.05
2023-01-15T15:37:12.958Z,1.00
2023-01-15T15:39:53.399Z,0.75
2023-01-15T15:42:56.295Z,0.70
2023-01-15T15:45:44.590Z,1.02
2023-01-15T15:48:37.449Z,0.75
2023-01-15T15:51:05.376Z,0.60
2023-01-15T15:53:32.367Z,0.85
2023-01-15T15:56:00.652Z,1.30
2023-01-15T15:58:36.835Z,1.48
2023-01-15T16:01:03.590Z,1.52
2023-01-15T16:03:33.347Z,1.30
2023-01-15T16:06:05.859Z,1.05
2023-01-15T16:08:34.701Z,1.50
2023-01-15T16:11:05.800Z,1.25
2023-01-15T16:13:38.625Z,2.10
2023-01-15T16:16:08.259Z,1.95
2023-01-15T16:18:41.201Z,1.50
2023-01-15T16:21:09.008Z,2.85
2023-01-15T16:23:36.016Z,3.00
2023-01-15T16:26:21.379Z,2.40
2023-01-15T16:28:54.628Z,2.22
2023-01-15T16:31:23.103Z,2.15
2023-01-15T16:33:58.128Z,2.35
2023-01-15T16:36:27.158Z,2.42
2023-01-15T16:38:54.592Z,2.80
2023-01-15T16:41:35.416Z,2.88
2023-01-15T16:44:05.013Z,4.63
2023-01-15T16:46:35.633Z,5.60
2023-01-15T16:49:23.879Z,4.53
2023-01-15T16:51:51.306Z,4.03
2023-01-15T16:54:29.989Z,4.53
2023-01-15T16:59:27.260Z,2.65
2023-01-15T17:01:59.777Z,2.10
2023-01-15T17:04:33.476Z,2.50
2023-01-15T17:07:03.269Z,3.38
2023-01-15T17:09:33.454Z,3.65
2023-01-15T17:12:06.462Z,4.05
2023-01-15T17:14:33.362Z,4.63
2023-01-15T17:17:21.748Z,4.30
2023-01-15T17:19:51.777Z,4.65
2023-01-15T17:22:32.717Z,3.75
2023-01-15T17:25:00.765Z,3.22
2023-01-15T17:27:29.380Z,3.40
2023-01-15T17:32:36.139Z,5.00
2023-01-15T17:35:02.730Z,3.70
2023-01-15T17:37:29.191Z,3.45
2023-01-15T17:39:55.940Z,3.92
2023-01-15T17:42:22.436Z,4.63
2023-01-15T17:44:49.706Z,4.90
2023-01-15T17:47:16.146Z,4.35
2023-01-15T17:49:42.744Z,3.92
2023-01-15T17:52:18.413Z,3.83
2023-01-15T17:55:03.730Z,4.00
2023-01-15T17:57:48.651Z,3.35
2023-01-15T18:00:34.083Z,2.70
2023-01-15T18:03:19.659Z,2.70
2023-01-15T18:05:50.571Z,3.10
2023-01-15T18:08:19.046Z,3.55
2023-01-15T18:10:46.220Z,5.95
2023-01-15T18:13:13.135Z,5.90
2023-01-15T18:15:40.431Z,4.95
2023-01-15T18:18:06.920Z,6.30
2023-01-15T18:20:34.226Z,5.28
2023-01-15T18:23:00.805Z,5.53
2023-01-15T18:25:27.388Z,5.25
2023-01-15T18:27:53.909Z,4.88
2023-01-15T18:30:20.962Z,4.57
2023-01-15T18:32:47.469Z,4.13
2023-01-15T18:35:15.246Z,4.55
2023-01-15T18:37:41.733Z,4.20
2023-01-15T18:40:09.535Z,4.13
2023-01-15T18:42:58.526Z,3.03
2023-01-15T18:45:43.940Z,3.85
2023-01-15T18:48:10.713Z,3.97
2023-01-15T18:50:37.261Z,3.33
2023-01-15T18:53:03.830Z,3.92
2023-01-15T18:55:30.452Z,3.60
2023-01-15T18:57:56.997Z,4.25
2023-01-15T19:00:24.931Z,4.30
2023-01-15T19:02:52.296Z,3.83
2023-01-15T19:05:19.705Z,4.00
2023-01-15T19:07:46.562Z,4.20
2023-01-15T19:10:14.819Z,4.72
2023-01-15T19:12:41.394Z,4.85
2023-01-15T19:15:27.258Z,5.70
2023-01-15T19:18:12.100Z,7.05
2023-01-15T19:20:39.378Z,10.27
2023-01-15T19:23:06.823Z,10.38
2023-01-15T19:25:41.963Z,8.77
2023-01-15T19:28:11.127Z,7.95
2023-01-15T19:30:39.455Z,9.40
2023-01-15T19:33:07.522Z,9.98
2023-01-15T19:35:35.642Z,8.90
2023-01-15T19:38:02.684Z,7.78
2023-01-15T19:40:30.634Z,8.45
2023-01-15T19:43:15.743Z,7.20
2023-01-15T19:46:03.697Z,4.90
2023-01-15T19:48:49.714Z,3.80
2023-01-15T19:51:16.231Z,3.20
2023-01-15T19:53:42.681Z,3.22
2023-01-15T19:56:09.207Z,3.60
2023-01-15T19:58:35.868Z,2.15
2023-01-15T20:01:03.380Z,1.75
2023-01-15T20:03:30.398Z,1.30
2023-01-15T20:05:57.683Z,1.52
2023-01-15T20:08:24.336Z,1.30
2023-01-15T20:10:51.285Z,1.40
2023-01-15T20:13:39.761Z,2.10
2023-01-15T20:18:37.617Z,3.85
2023-01-15T20:21:04.691Z,3.55
2023-01-15T20:23:31.545Z,3.50
2023-01-15T20:26:03.694Z,3.78
2023-01-15T20:28:30.975Z,3.50
2023-01-15T20:30:57.671Z,4.10
2023-01-15T20:33:25.006Z,4.43
2023-01-15T20:35:54.029Z,4.05
2023-01-15T20:38:24.638Z,3.58
2023-01-15T20:40:52.224Z,4.32
2023-01-15T20:43:38.311Z,4.82
2023-01-15T20:46:12.878Z,5.10
2023-01-15T20:48:58.091Z,4.45
2023-01-15T20:51:24.629Z,3.45
2023-01-15T20:53:53.087Z,4.00
2023-01-15T20:56:20.570Z,4.00
2023-01-15T20:58:47.100Z,3.38
2023-01-15T21:01:13.980Z,4.18
2023-01-15T21:03:40.845Z,3.50
2023-01-15T21:06:07.966Z,3.63
2023-01-15T21:08:35.021Z,3.75
2023-01-15T21:11:02.280Z,3.63
2023-01-15T21:13:30.977Z,4.20
2023-01-15T21:18:35.700Z,3.60
2023-01-15T21:21:08.640Z,3.50
2023-01-15T21:23:35.136Z,3.25
2023-01-15T21:26:01.682Z,3.35
2023-01-15T21:28:29.548Z,3.28
2023-01-15T21:30:56.257Z,2.30
2023-01-15T21:33:22.761Z,2.75
2023-01-15T21:35:49.614Z,2.42
2023-01-15T21:38:16.070Z,2.60
2023-01-15T21:40:42.558Z,2.45
2023-01-15T21:43:28.667Z,2.95
2023-01-15T21:46:05.306Z,2.30
2023-01-15T21:48:32.393Z,2.53
2023-01-15T21:51:03.053Z,2.22
2023-01-15T21:53:29.549Z,2.80
2023-01-15T21:55:56.018Z,2.42
2023-01-15T21:58:22.675Z,2.45
2023-01-15T22:00:49.345Z,2.00
2023-01-15T22:03:17.969Z,1.73
2023-01-15T22:05:45.504Z,1.50
2023-01-15T22:08:12.068Z,1.40
2023-01-15T22:10:38.685Z,1.83
2023-01-15T22:13:05.214Z,1.60
2023-01-15T22:15:31.716Z,2.30
2023-01-15T22:17:59.387Z,2.80
2023-01-15T22:20:25.980Z,2.40
2023-01-15T22:22:52.495Z,2.50
2023-01-15T22:25:20.060Z,2.35
2023-01-15T22:27:47.841Z,1.70
2023-01-15T22:30:15.739Z,1.88
2023-01-15T22:32:42.358Z,1.38
2023-01-15T22:35:09.589Z,1.10
2023-01-15T22:37:36.205Z,1.33
2023-01-15T22:40:02.866Z,1.13
2023-01-15T22:42:31.135Z,1.00
2023-01-15T22:44:59.796Z,1.20
2023-01-15T22:49:53.607Z,1.30
2023-01-15T22:52:21.222Z,1.10
2023-01-15T22:54:47.749Z,1.30
2023-01-15T22:57:14.450Z,1.10
2023-01-15T22:59:40.894Z,1.27
2023-01-15T23:02:08.951Z,1.40
2023-01-15T23:04:35.504Z,1.60
2023-01-15T23:07:02.637Z,1.60
2023-01-15T23:09:29.125Z,1.83
2023-01-15T23:11:55.548Z,1.88
2023-01-15T23:14:22.935Z,1.80
2023-01-15T23:16:52.794Z,1.70
2023-01-15T23:19:21.581Z,1.65
2023-01-15T23:21:48.534Z,1.58
2023-01-15T23:24:15.162Z,1.92
2023-01-15T23:26:41.727Z,1.90
2023-01-15T23:29:08.685Z,2.05
2023-01-15T23:31:35.685Z,2.08
2023-01-15T23:34:02.215Z,2.15
2023-01-15T23:36:29.178Z,2.33
2023-01-15T23:38:55.752Z,1.95
2023-01-15T23:41:43.906Z,1.88
2023-01-15T23:44:33.647Z,1.63
2023-01-15T23:47:00.293Z,1.70
2023-01-15T23:49:26.814Z,1.20
2023-01-15T23:51:53.882Z,1.55
2023-01-15T23:54:21.339Z,1.20
2023-01-15T23:56:48.845Z,1.73
2023-01-15T23:59:15.332Z,1.35
